Terminal Aerodrome Forecast
Issued by NWS Lake Charles, LA

Home | Current Version | Previous Version | Text Only | Print | Product List | Glossary On
Versions: 1 2 3 4 5 6 7 8 9 10 11 12 13 14 15 16 17 18 19 20
000
FTUS44 KLCH 012340
TAFARA
TAF
KARA 012340Z 0200/0224 17009KT P6SM SCT025
     FM020300 16006KT P6SM SCT005 BKN012
      TEMPO 0211/0215 3SM BR OVC005
     FM021500 18016G24KT P6SM BKN025=

USA.gov is the U.S. government's official web portal to all federal, state and local government web resources and services.